sensor_id;sensor_type;location;lat;lon;timestamp;temperature;humidity
12811;DHT22;6470;47.654;7.896;2022-08-27T00:09:01;18.20;99.90
12811;DHT22;6470;47.654;7.896;2022-08-27T00:11:27;18.30;99.90
12811;DHT22;6470;47.654;7.896;2022-08-27T00:13:53;18.20;99.90
12811;DHT22;6470;47.654;7.896;2022-08-27T00:16:21;18.20;99.90
12811;DHT22;6470;47.654;7.896;2022-08-27T00:18:48;18.30;99.90
12811;DHT22;6470;47.654;7.896;2022-08-27T00:21:16;17.70;99.90
12811;DHT22;6470;47.654;7.896;2022-08-27T00:23:42;18.00;99.90
12811;DHT22;6470;47.654;7.896;2022-08-27T00:26:08;18.10;99.90
12811;DHT22;6470;47.654;7.896;2022-08-27T00:28:35;18.00;99.90
12811;DHT22;6470;47.654;7.896;2022-08-27T00:31:00;18.00;99.90
12811;DHT22;6470;47.654;7.896;2022-08-27T00:33:26;18.00;99.90
12811;DHT22;6470;47.654;7.896;2022-08-27T00:35:52;18.10;99.90
12811;DHT22;6470;47.654;7.896;2022-08-27T00:38:20;18.20;99.90
12811;DHT22;6470;47.654;7.896;2022-08-27T00:40:47;17.50;99.90
12811;DHT22;6470;47.654;7.896;2022-08-27T00:43:19;18.00;99.90
12811;DHT22;6470;47.654;7.896;2022-08-27T00:45:45;17.90;99.90
12811;DHT22;6470;47.654;7.896;2022-08-27T00:48:14;17.80;99.90
12811;DHT22;6470;47.654;7.896;2022-08-27T00:50:46;18.00;99.90
12811;DHT22;6470;47.654;7.896;2022-08-27T00:53:16;18.20;99.90
12811;DHT22;6470;47.654;7.896;2022-08-27T00:55:45;17.30;99.90
12811;DHT22;6470;47.654;7.896;2022-08-27T00:58:31;18.10;99.90
12811;DHT22;6470;47.654;7.896;2022-08-27T01:00:59;18.20;99.90
12811;DHT22;6470;47.654;7.896;2022-08-27T01:03:26;17.70;99.90
12811;DHT22;6470;47.654;7.896;2022-08-27T01:05:54;18.10;99.90
12811;DHT22;6470;47.654;7.896;2022-08-27T01:08:24;17.90;99.90
12811;DHT22;6470;47.654;7.896;2022-08-27T01:10:51;17.70;99.90
12811;DHT22;6470;47.654;7.896;2022-08-27T01:13:20;17.90;99.90
12811;DHT22;6470;47.654;7.896;2022-08-27T01:15:47;18.30;99.90
12811;DHT22;6470;47.654;7.896;2022-08-27T01:18:14;18.00;99.90
12811;DHT22;6470;47.654;7.896;2022-08-27T01:23:40;18.00;99.90
12811;DHT22;6470;47.654;7.896;2022-08-27T01:26:09;18.10;99.90
12811;DHT22;6470;47.654;7.896;2022-08-27T01:31:08;18.00;99.90
12811;DHT22;6470;47.654;7.896;2022-08-27T01:33:35;17.90;99.90
12811;DHT22;6470;47.654;7.896;2022-08-27T01:38:28;18.00;99.90
12811;DHT22;6470;47.654;7.896;2022-08-27T01:40:54;17.90;99.90
12811;DHT22;6470;47.654;7.896;2022-08-27T01:43:20;18.00;99.90
12811;DHT22;6470;47.654;7.896;2022-08-27T01:45:49;17.60;99.90
12811;DHT22;6470;47.654;7.896;2022-08-27T01:48:17;18.70;99.90
12811;DHT22;6470;47.654;7.896;2022-08-27T01:50:44;18.10;99.90
12811;DHT22;6470;47.654;7.896;2022-08-27T01:53:15;18.50;99.90
12811;DHT22;6470;47.654;7.896;2022-08-27T01:55:43;18.50;99.90
12811;DHT22;6470;47.654;7.896;2022-08-27T01:58:10;18.00;99.90
12811;DHT22;6470;47.654;7.896;2022-08-27T02:00:39;18.30;99.90
12811;DHT22;6470;47.654;7.896;2022-08-27T02:03:08;18.20;99.90
12811;DHT22;6470;47.654;7.896;2022-08-27T02:05:34;18.50;99.90
12811;DHT22;6470;47.654;7.896;2022-08-27T02:08:00;17.80;99.90
12811;DHT22;6470;47.654;7.896;2022-08-27T02:10:29;17.80;99.90
12811;DHT22;6470;47.654;7.896;2022-08-27T02:12:55;17.90;99.90
12811;DHT22;6470;47.654;7.896;2022-08-27T02:15:22;18.00;99.90
12811;DHT22;6470;47.654;7.896;2022-08-27T02:17:49;18.00;99.90
12811;DHT22;6470;47.654;7.896;2022-08-27T02:20:16;18.00;99.90
12811;DHT22;6470;47.654;7.896;2022-08-27T02:22:42;18.00;99.90
12811;DHT22;6470;47.654;7.896;2022-08-27T02:25:09;17.90;99.90
12811;DHT22;6470;47.654;7.896;2022-08-27T02:27:39;18.00;99.90
12811;DHT22;6470;47.654;7.896;2022-08-27T02:30:06;17.60;99.90
12811;DHT22;6470;47.654;7.896;2022-08-27T02:34:59;18.10;99.90
12811;DHT22;6470;47.654;7.896;2022-08-27T02:42:16;17.10;99.90
12811;DHT22;6470;47.654;7.896;2022-08-27T02:44:42;17.60;99.90
12811;DHT22;6470;47.654;7.896;2022-08-27T02:47:08;17.80;99.90
12811;DHT22;6470;47.654;7.896;2022-08-27T02:49:33;15.30;99.90
12811;DHT22;6470;47.654;7.896;2022-08-27T02:51:59;17.60;99.90
12811;DHT22;6470;47.654;7.896;2022-08-27T02:54:25;17.50;99.90
12811;DHT22;6470;47.654;7.896;2022-08-27T02:56:52;17.20;99.90
12811;DHT22;6470;47.654;7.896;2022-08-27T02:59:19;18.30;99.90
12811;DHT22;6470;47.654;7.896;2022-08-27T03:01:46;18.00;99.90
12811;DHT22;6470;47.654;7.896;2022-08-27T03:04:12;18.10;99.90
12811;DHT22;6470;47.654;7.896;2022-08-27T03:06:39;17.70;99.90
12811;DHT22;6470;47.654;7.896;2022-08-27T03:09:05;17.90;99.90
12811;DHT22;6470;47.654;7.896;2022-08-27T03:11:31;17.90;99.90
12811;DHT22;6470;47.654;7.896;2022-08-27T03:13:58;18.40;99.90
12811;DHT22;6470;47.654;7.896;2022-08-27T03:16:24;17.90;99.90
12811;DHT22;6470;47.654;7.896;2022-08-27T03:18:50;17.60;99.90
12811;DHT22;6470;47.654;7.896;2022-08-27T03:21:21;17.70;99.90
12811;DHT22;6470;47.654;7.896;2022-08-27T03:23:49;17.40;99.90
12811;DHT22;6470;47.654;7.896;2022-08-27T03:26:15;17.60;99.90
12811;DHT22;6470;47.654;7.896;2022-08-27T03:28:41;17.60;99.90
12811;DHT22;6470;47.654;7.896;2022-08-27T03:31:16;17.40;99.90
12811;DHT22;6470;47.654;7.896;2022-08-27T03:33:44;17.50;99.90
12811;DHT22;6470;47.654;7.896;2022-08-27T03:36:10;17.00;99.90
12811;DHT22;6470;47.654;7.896;2022-08-27T03:38:37;17.30;99.90
12811;DHT22;6470;47.654;7.896;2022-08-27T03:41:04;17.40;99.90
12811;DHT22;6470;47.654;7.896;2022-08-27T03:43:30;17.30;99.90
12811;DHT22;6470;47.654;7.896;2022-08-27T03:45:56;17.20;99.90
12811;DHT22;6470;47.654;7.896;2022-08-27T03:50:49;17.50;99.90
12811;DHT22;6470;47.654;7.896;2022-08-27T03:53:16;17.90;99.90
12811;DHT22;6470;47.654;7.896;2022-08-27T03:55:42;16.80;99.90
12811;DHT22;6470;47.654;7.896;2022-08-27T03:58:10;16.90;99.90
12811;DHT22;6470;47.654;7.896;2022-08-27T04:00:37;17.00;99.90
12811;DHT22;6470;47.654;7.896;2022-08-27T04:03:04;17.70;99.90
12811;DHT22;6470;47.654;7.896;2022-08-27T04:05:30;14.60;99.90
12811;DHT22;6470;47.654;7.896;2022-08-27T04:10:23;17.40;99.90
12811;DHT22;6470;47.654;7.896;2022-08-27T04:12:48;17.70;99.90
12811;DHT22;6470;47.654;7.896;2022-08-27T04:15:15;14.60;99.90
12811;DHT22;6470;47.654;7.896;2022-08-27T04:17:41;17.40;99.90
12811;DHT22;6470;47.654;7.896;2022-08-27T04:20:08;16.80;99.90
12811;DHT22;6470;47.654;7.896;2022-08-27T04:22:35;17.30;99.90
12811;DHT22;6470;47.654;7.896;2022-08-27T04:25:01;17.20;99.90
12811;DHT22;6470;47.654;7.896;2022-08-27T04:27:27;17.20;99.90
12811;DHT22;6470;47.654;7.896;2022-08-27T04:29:57;14.20;99.90
12811;DHT22;6470;47.654;7.896;2022-08-27T04:32:25;16.90;99.90
12811;DHT22;6470;47.654;7.896;2022-08-27T04:34:55;16.40;99.90
12811;DHT22;6470;47.654;7.896;2022-08-27T04:37:22;17.20;99.90
12811;DHT22;6470;47.654;7.896;2022-08-27T04:39:48;17.20;99.90
12811;DHT22;6470;47.654;7.896;2022-08-27T04:42:16;17.20;99.90
12811;DHT22;6470;47.654;7.896;2022-08-27T04:44:43;17.20;99.90
12811;DHT22;6470;47.654;7.896;2022-08-27T04:47:09;18.10;99.90
12811;DHT22;6470;47.654;7.896;2022-08-27T04:49:36;17.30;99.90
12811;DHT22;6470;47.654;7.896;2022-08-27T04:52:03;17.40;99.90
12811;DHT22;6470;47.654;7.896;2022-08-27T04:54:29;17.10;99.90
12811;DHT22;6470;47.654;7.896;2022-08-27T04:56:54;17.20;99.90
12811;DHT22;6470;47.654;7.896;2022-08-27T04:59:20;17.20;99.90
12811;DHT22;6470;47.654;7.896;2022-08-27T05:01:46;17.20;99.90
12811;DHT22;6470;47.654;7.896;2022-08-27T05:04:14;17.30;99.90
12811;DHT22;6470;47.654;7.896;2022-08-27T05:06:41;16.50;99.90
12811;DHT22;6470;47.654;7.896;2022-08-27T05:09:13;17.20;99.90
12811;DHT22;6470;47.654;7.896;2022-08-27T05:11:39;17.80;99.90
12811;DHT22;6470;47.654;7.896;2022-08-27T05:14:08;17.30;99.90
12811;DHT22;6470;47.654;7.896;2022-08-27T05:16:35;17.40;99.90
12811;DHT22;6470;47.654;7.896;2022-08-27T05:19:03;17.50;99.90
12811;DHT22;6470;47.654;7.896;2022-08-27T05:21:32;17.50;99.90
12811;DHT22;6470;47.654;7.896;2022-08-27T05:24:00;17.40;99.90
12811;DHT22;6470;47.654;7.896;2022-08-27T05:26:27;17.10;99.90
12811;DHT22;6470;47.654;7.896;2022-08-27T05:28:53;17.40;99.90
12811;DHT22;6470;47.654;7.896;2022-08-27T05:31:19;17.50;99.90
12811;DHT22;6470;47.654;7.896;2022-08-27T05:33:46;17.40;99.90
12811;DHT22;6470;47.654;7.896;2022-08-27T05:36:21;16.90;99.90
12811;DHT22;6470;47.654;7.896;2022-08-27T05:38:48;17.00;99.90
12811;DHT22;6470;47.654;7.896;2022-08-27T05:41:17;17.70;99.90
12811;DHT22;6470;47.654;7.896;2022-08-27T05:43:44;18.00;99.90
12811;DHT22;6470;47.654;7.896;2022-08-27T05:46:13;17.40;99.90
12811;DHT22;6470;47.654;7.896;2022-08-27T05:48:40;17.40;99.90
12811;DHT22;6470;47.654;7.896;2022-08-27T05:51:27;17.20;99.90
12811;DHT22;6470;47.654;7.896;2022-08-27T05:54:05;17.40;99.90
12811;DHT22;6470;47.654;7.896;2022-08-27T05:56:33;17.50;99.90
12811;DHT22;6470;47.654;7.896;2022-08-27T05:58:59;17.50;99.90
12811;DHT22;6470;47.654;7.896;2022-08-27T06:01:46;17.50;99.90
12811;DHT22;6470;47.654;7.896;2022-08-27T06:04:14;17.60;99.90
12811;DHT22;6470;47.654;7.896;2022-08-27T06:06:41;17.60;99.90
12811;DHT22;6470;47.654;7.896;2022-08-27T06:09:09;18.00;99.90
12811;DHT22;6470;47.654;7.896;2022-08-27T06:11:35;17.20;99.90
12811;DHT22;6470;47.654;7.896;2022-08-27T06:14:01;17.50;99.90
12811;DHT22;6470;47.654;7.896;2022-08-27T06:16:27;17.00;99.90
12811;DHT22;6470;47.654;7.896;2022-08-27T06:18:53;17.70;99.90
12811;DHT22;6470;47.654;7.896;2022-08-27T06:26:15;17.90;99.90
12811;DHT22;6470;47.654;7.896;2022-08-27T06:28:41;18.00;99.90
12811;DHT22;6470;47.654;7.896;2022-08-27T06:31:21;17.50;99.90
12811;DHT22;6470;47.654;7.896;2022-08-27T06:33:48;18.80;99.90
12811;DHT22;6470;47.654;7.896;2022-08-27T06:36:21;17.70;99.90
12811;DHT22;6470;47.654;7.896;2022-08-27T06:38:47;19.20;99.90
12811;DHT22;6470;47.654;7.896;2022-08-27T06:41:15;17.90;99.90
12811;DHT22;6470;47.654;7.896;2022-08-27T06:46:11;18.50;99.90
12811;DHT22;6470;47.654;7.896;2022-08-27T06:48:37;18.50;99.90
12811;DHT22;6470;47.654;7.896;2022-08-27T06:51:11;18.60;99.90
12811;DHT22;6470;47.654;7.896;2022-08-27T06:53:38;18.70;99.90
12811;DHT22;6470;47.654;7.896;2022-08-27T06:56:04;18.90;99.90
12811;DHT22;6470;47.654;7.896;2022-08-27T06:58:30;19.00;99.90
12811;DHT22;6470;47.654;7.896;2022-08-27T07:00:58;18.90;99.90
12811;DHT22;6470;47.654;7.896;2022-08-27T07:03:23;19.00;99.90
12811;DHT22;6470;47.654;7.896;2022-08-27T07:05:49;18.70;99.90
12811;DHT22;6470;47.654;7.896;2022-08-27T07:08:15;18.70;99.90
12811;DHT22;6470;47.654;7.896;2022-08-27T07:10:40;19.00;99.90
12811;DHT22;6470;47.654;7.896;2022-08-27T07:13:07;19.10;99.90
12811;DHT22;6470;47.654;7.896;2022-08-27T07:15:33;19.10;99.90
12811;DHT22;6470;47.654;7.896;2022-08-27T07:18:02;19.60;99.90
12811;DHT22;6470;47.654;7.896;2022-08-27T07:20:28;19.70;99.90
12811;DHT22;6470;47.654;7.896;2022-08-27T07:22:54;19.30;99.90
12811;DHT22;6470;47.654;7.896;2022-08-27T07:25:24;19.40;99.90
12811;DHT22;6470;47.654;7.896;2022-08-27T07:27:50;16.60;99.90
12811;DHT22;6470;47.654;7.896;2022-08-27T07:30:17;19.50;99.90
12811;DHT22;6470;47.654;7.896;2022-08-27T07:32:44;19.70;99.90
12811;DHT22;6470;47.654;7.896;2022-08-27T07:35:10;19.90;99.90
12811;DHT22;6470;47.654;7.896;2022-08-27T07:37:37;19.90;99.90
12811;DHT22;6470;47.654;7.896;2022-08-27T07:40:05;20.30;99.90
12811;DHT22;6470;47.654;7.896;2022-08-27T07:42:31;20.00;99.90
12811;DHT22;6470;47.654;7.896;2022-08-27T07:45:15;19.90;99.90
12811;DHT22;6470;47.654;7.896;2022-08-27T07:47:41;19.50;99.90
12811;DHT22;6470;47.654;7.896;2022-08-27T07:52:33;19.90;99.90
12811;DHT22;6470;47.654;7.896;2022-08-27T07:54:59;20.00;99.90
12811;DHT22;6470;47.654;7.896;2022-08-27T07:57:25;20.70;99.90
12811;DHT22;6470;47.654;7.896;2022-08-27T07:59:51;20.20;99.90
12811;DHT22;6470;47.654;7.896;2022-08-27T08:02:20;20.00;99.90
12811;DHT22;6470;47.654;7.896;2022-08-27T08:04:45;20.40;99.90
12811;DHT22;6470;47.654;7.896;2022-08-27T08:07:11;20.60;99.90
12811;DHT22;6470;47.654;7.896;2022-08-27T08:09:37;20.80;99.90
12811;DHT22;6470;47.654;7.896;2022-08-27T08:12:03;20.90;99.90
12811;DHT22;6470;47.654;7.896;2022-08-27T08:14:30;21.10;99.90
12811;DHT22;6470;47.654;7.896;2022-08-27T08:17:01;20.90;99.90
12811;DHT22;6470;47.654;7.896;2022-08-27T08:19:28;21.00;99.90
12811;DHT22;6470;47.654;7.896;2022-08-27T08:21:54;21.00;99.90
12811;DHT22;6470;47.654;7.896;2022-08-27T08:24:19;21.00;99.90
12811;DHT22;6470;47.654;7.896;2022-08-27T08:26:45;21.10;99.90
12811;DHT22;6470;47.654;7.896;2022-08-27T08:29:11;20.80;99.90
12811;DHT22;6470;47.654;7.896;2022-08-27T08:31:39;21.50;99.90
12811;DHT22;6470;47.654;7.896;2022-08-27T08:36:31;21.40;99.90
12811;DHT22;6470;47.654;7.896;2022-08-27T08:38:57;21.60;99.90
12811;DHT22;6470;47.654;7.896;2022-08-27T08:41:33;22.10;99.90
12811;DHT22;6470;47.654;7.896;2022-08-27T08:44:30;22.00;99.90
12811;DHT22;6470;47.654;7.896;2022-08-27T08:50:05;21.80;99.90
12811;DHT22;6470;47.654;7.896;2022-08-27T08:52:59;21.20;99.90
12811;DHT22;6470;47.654;7.896;2022-08-27T08:55:43;21.90;99.90
12811;DHT22;6470;47.654;7.896;2022-08-27T08:58:16;21.90;99.90
12811;DHT22;6470;47.654;7.896;2022-08-27T09:00:45;21.90;99.90
12811;DHT22;6470;47.654;7.896;2022-08-27T09:03:13;21.80;99.90
12811;DHT22;6470;47.654;7.896;2022-08-27T09:05:47;22.80;99.90
12811;DHT22;6470;47.654;7.896;2022-08-27T09:08:28;22.90;99.90
12811;DHT22;6470;47.654;7.896;2022-08-27T09:13:41;22.90;99.90
12811;DHT22;6470;47.654;7.896;2022-08-27T09:16:08;22.20;99.90
12811;DHT22;6470;47.654;7.896;2022-08-27T09:18:36;22.90;99.90
12811;DHT22;6470;47.654;7.896;2022-08-27T09:26:36;22.40;99.90
12811;DHT22;6470;47.654;7.896;2022-08-27T09:29:05;21.90;99.90
12811;DHT22;6470;47.654;7.896;2022-08-27T09:31:44;22.00;99.90
12811;DHT22;6470;47.654;7.896;2022-08-27T09:34:12;22.50;99.90
12811;DHT22;6470;47.654;7.896;2022-08-27T09:37:03;22.50;99.90
12811;DHT22;6470;47.654;7.896;2022-08-27T09:40:21;22.50;99.90
12811;DHT22;6470;47.654;7.896;2022-08-27T09:45:27;22.50;99.90
12811;DHT22;6470;47.654;7.896;2022-08-27T09:48:01;22.70;99.90
12811;DHT22;6470;47.654;7.896;2022-08-27T09:50:33;22.60;99.90
12811;DHT22;6470;47.654;7.896;2022-08-27T09:53:00;22.60;99.90
12811;DHT22;6470;47.654;7.896;2022-08-27T09:55:42;23.10;99.90
12811;DHT22;6470;47.654;7.896;2022-08-27T09:58:23;22.90;99.90
12811;DHT22;6470;47.654;7.896;2022-08-27T10:01:00;23.00;99.90
12811;DHT22;6470;47.654;7.896;2022-08-27T10:03:26;23.00;99.90
12811;DHT22;6470;47.654;7.896;2022-08-27T10:05:52;23.10;99.90
12811;DHT22;6470;47.654;7.896;2022-08-27T10:11:03;23.30;99.90
12811;DHT22;6470;47.654;7.896;2022-08-27T10:13:43;24.10;99.90
12811;DHT22;6470;47.654;7.896;2022-08-27T10:16:41;24.00;99.90
12811;DHT22;6470;47.654;7.896;2022-08-27T10:24:55;24.20;99.90
12811;DHT22;6470;47.654;7.896;2022-08-27T10:30:25;24.80;99.90
12811;DHT22;6470;47.654;7.896;2022-08-27T10:35:57;24.60;99.90
12811;DHT22;6470;47.654;7.896;2022-08-27T10:38:44;24.80;99.90
12811;DHT22;6470;47.654;7.896;2022-08-27T10:54:52;25.20;99.90
12811;DHT22;6470;47.654;7.896;2022-08-27T11:00:17;25.60;99.90
12811;DHT22;6470;47.654;7.896;2022-08-27T11:02:59;25.40;99.90
12811;DHT22;6470;47.654;7.896;2022-08-27T11:05:34;25.70;99.90
12811;DHT22;6470;47.654;7.896;2022-08-27T11:11:20;27.10;99.90
12811;DHT22;6470;47.654;7.896;2022-08-27T11:13:49;26.70;99.90
12811;DHT22;6470;47.654;7.896;2022-08-27T11:16:24;26.50;99.90
12811;DHT22;6470;47.654;7.896;2022-08-27T11:19:14;27.10;99.90
12811;DHT22;6470;47.654;7.896;2022-08-27T11:21:46;26.50;99.90
12811;DHT22;6470;47.654;7.896;2022-08-27T11:24:41;26.80;99.90
12811;DHT22;6470;47.654;7.896;2022-08-27T11:27:08;26.90;99.90
12811;DHT22;6470;47.654;7.896;2022-08-27T11:29:45;24.60;99.90
12811;DHT22;6470;47.654;7.896;2022-08-27T11:32:44;27.20;99.90
12811;DHT22;6470;47.654;7.896;2022-08-27T11:35:23;27.40;99.90
12811;DHT22;6470;47.654;7.896;2022-08-27T11:43:41;26.50;99.90
12811;DHT22;6470;47.654;7.896;2022-08-27T11:46:09;25.80;99.90
12811;DHT22;6470;47.654;7.896;2022-08-27T11:51:05;25.20;99.90
12811;DHT22;6470;47.654;7.896;2022-08-27T11:53:34;25.00;99.90
12811;DHT22;6470;47.654;7.896;2022-08-27T11:56:36;25.10;99.90
12811;DHT22;6470;47.654;7.896;2022-08-27T12:01:52;25.90;99.90
12811;DHT22;6470;47.654;7.896;2022-08-27T12:09:27;25.10;99.90
12811;DHT22;6470;47.654;7.896;2022-08-27T12:24:56;25.00;99.90
12811;DHT22;6470;47.654;7.896;2022-08-27T12:30:21;24.50;99.90
12811;DHT22;6470;47.654;7.896;2022-08-27T12:32:52;24.20;99.90
12811;DHT22;6470;47.654;7.896;2022-08-27T12:35:35;25.20;99.90
12811;DHT22;6470;47.654;7.896;2022-08-27T12:38:17;24.60;99.90
12811;DHT22;6470;47.654;7.896;2022-08-27T12:40:48;24.60;99.90
12811;DHT22;6470;47.654;7.896;2022-08-27T12:43:25;24.50;99.90
12811;DHT22;6470;47.654;7.896;2022-08-27T12:45:55;25.10;99.90
12811;DHT22;6470;47.654;7.896;2022-08-27T12:48:28;24.60;99.90
12811;DHT22;6470;47.654;7.896;2022-08-27T12:51:18;24.90;99.90
12811;DHT22;6470;47.654;7.896;2022-08-27T13:05:11;24.90;99.90
12811;DHT22;6470;47.654;7.896;2022-08-27T13:07:42;25.20;99.90
12811;DHT22;6470;47.654;7.896;2022-08-27T13:10:31;26.50;99.90
12811;DHT22;6470;47.654;7.896;2022-08-27T13:13:17;26.30;99.90
12811;DHT22;6470;47.654;7.896;2022-08-27T13:15:55;26.20;99.90
12811;DHT22;6470;47.654;7.896;2022-08-27T13:18:22;26.40;99.90
12811;DHT22;6470;47.654;7.896;2022-08-27T13:20:50;25.50;99.90
12811;DHT22;6470;47.654;7.896;2022-08-27T13:23:24;26.40;99.90
12811;DHT22;6470;47.654;7.896;2022-08-27T13:26:08;23.70;99.90
12811;DHT22;6470;47.654;7.896;2022-08-27T13:28:36;27.00;99.90
12811;DHT22;6470;47.654;7.896;2022-08-27T13:31:05;27.10;99.90
12811;DHT22;6470;47.654;7.896;2022-08-27T13:33:33;27.20;99.90
12811;DHT22;6470;47.654;7.896;2022-08-27T13:36:00;27.50;99.90
12811;DHT22;6470;47.654;7.896;2022-08-27T13:38:30;27.20;99.90
12811;DHT22;6470;47.654;7.896;2022-08-27T13:41:04;27.50;99.90
12811;DHT22;6470;47.654;7.896;2022-08-27T13:46:19;28.00;99.90
12811;DHT22;6470;47.654;7.896;2022-08-27T13:48:49;28.50;99.90
12811;DHT22;6470;47.654;7.896;2022-08-27T13:51:27;25.60;99.90
12811;DHT22;6470;47.654;7.896;2022-08-27T13:53:54;28.30;99.90
12811;DHT22;6470;47.654;7.896;2022-08-27T13:59:26;27.60;99.90
12811;DHT22;6470;47.654;7.896;2022-08-27T14:07:13;28.00;99.90
12811;DHT22;6470;47.654;7.896;2022-08-27T14:09:54;29.00;99.90
12811;DHT22;6470;47.654;7.896;2022-08-27T14:12:36;25.80;99.90
12811;DHT22;6470;47.654;7.896;2022-08-27T14:17:50;26.90;99.90
12811;DHT22;6470;47.654;7.896;2022-08-27T14:20:17;26.40;99.90
12811;DHT22;6470;47.654;7.896;2022-08-27T14:22:43;25.50;99.90
12811;DHT22;6470;47.654;7.896;2022-08-27T14:25:10;24.70;99.90
12811;DHT22;6470;47.654;7.896;2022-08-27T14:27:37;24.40;99.90
12811;DHT22;6470;47.654;7.896;2022-08-27T14:30:08;24.20;99.90
12811;DHT22;6470;47.654;7.896;2022-08-27T14:32:34;24.10;99.90
12811;DHT22;6470;47.654;7.896;2022-08-27T14:35:00;23.90;99.90
12811;DHT22;6470;47.654;7.896;2022-08-27T14:37:26;23.50;99.90
12811;DHT22;6470;47.654;7.896;2022-08-27T14:39:52;23.00;99.90
12811;DHT22;6470;47.654;7.896;2022-08-27T14:42:17;22.50;99.90
12811;DHT22;6470;47.654;7.896;2022-08-27T14:44:44;22.00;99.90
12811;DHT22;6470;47.654;7.896;2022-08-27T14:47:10;21.60;99.90
12811;DHT22;6470;47.654;7.896;2022-08-27T14:49:40;20.60;99.90
12811;DHT22;6470;47.654;7.896;2022-08-27T14:52:07;18.50;99.90
12811;DHT22;6470;47.654;7.896;2022-08-27T14:54:34;21.50;99.90
12811;DHT22;6470;47.654;7.896;2022-08-27T14:57:01;21.70;99.90
12811;DHT22;6470;47.654;7.896;2022-08-27T14:59:27;21.80;99.90
12811;DHT22;6470;47.654;7.896;2022-08-27T15:01:54;21.40;99.90
12811;DHT22;6470;47.654;7.896;2022-08-27T15:04:23;21.80;99.90
12811;DHT22;6470;47.654;7.896;2022-08-27T15:09:15;22.80;99.90
12811;DHT22;6470;47.654;7.896;2022-08-27T15:11:41;23.50;99.90
12811;DHT22;6470;47.654;7.896;2022-08-27T15:14:32;23.30;99.90
12811;DHT22;6470;47.654;7.896;2022-08-27T15:16:59;23.00;99.90
12811;DHT22;6470;47.654;7.896;2022-08-27T15:19:27;23.70;99.90
12811;DHT22;6470;47.654;7.896;2022-08-27T15:21:57;24.10;99.90
12811;DHT22;6470;47.654;7.896;2022-08-27T15:24:29;24.10;99.90
12811;DHT22;6470;47.654;7.896;2022-08-27T15:26:58;24.30;99.90
12811;DHT22;6470;47.654;7.896;2022-08-27T15:29:24;24.40;99.90
12811;DHT22;6470;47.654;7.896;2022-08-27T15:31:50;24.50;99.90
12811;DHT22;6470;47.654;7.896;2022-08-27T15:34:16;24.60;99.90
12811;DHT22;6470;47.654;7.896;2022-08-27T15:36:42;24.70;99.90
12811;DHT22;6470;47.654;7.896;2022-08-27T15:39:08;24.70;99.90
12811;DHT22;6470;47.654;7.896;2022-08-27T15:41:35;24.40;99.90
12811;DHT22;6470;47.654;7.896;2022-08-27T15:46:28;23.90;99.90
12811;DHT22;6470;47.654;7.896;2022-08-27T15:48:54;24.20;99.90
12811;DHT22;6470;47.654;7.896;2022-08-27T15:51:31;23.70;99.90
12811;DHT22;6470;47.654;7.896;2022-08-27T15:53:58;23.50;99.90
12811;DHT22;6470;47.654;7.896;2022-08-27T15:56:25;23.30;99.90
12811;DHT22;6470;47.654;7.896;2022-08-27T15:58:50;23.00;99.90
12811;DHT22;6470;47.654;7.896;2022-08-27T16:01:25;23.30;99.90
12811;DHT22;6470;47.654;7.896;2022-08-27T16:03:52;22.80;99.90
12811;DHT22;6470;47.654;7.896;2022-08-27T16:06:18;23.20;99.90
12811;DHT22;6470;47.654;7.896;2022-08-27T16:08:44;23.20;99.90
12811;DHT22;6470;47.654;7.896;2022-08-27T16:11:10;23.10;99.90
12811;DHT22;6470;47.654;7.896;2022-08-27T16:13:35;22.90;99.90
12811;DHT22;6470;47.654;7.896;2022-08-27T16:16:02;22.80;99.90
12811;DHT22;6470;47.654;7.896;2022-08-27T16:18:30;23.10;99.90
12811;DHT22;6470;47.654;7.896;2022-08-27T16:20:58;22.90;99.90
12811;DHT22;6470;47.654;7.896;2022-08-27T16:23:25;23.10;99.90
12811;DHT22;6470;47.654;7.896;2022-08-27T16:25:55;23.30;99.90
12811;DHT22;6470;47.654;7.896;2022-08-27T16:28:22;23.10;99.90
12811;DHT22;6470;47.654;7.896;2022-08-27T16:30:49;22.90;99.90
12811;DHT22;6470;47.654;7.896;2022-08-27T16:33:16;23.30;99.90
12811;DHT22;6470;47.654;7.896;2022-08-27T16:35:42;23.60;99.90
12811;DHT22;6470;47.654;7.896;2022-08-27T16:38:09;23.50;99.90
12811;DHT22;6470;47.654;7.896;2022-08-27T16:40:42;23.60;99.90
12811;DHT22;6470;47.654;7.896;2022-08-27T16:43:12;23.60;99.90
12811;DHT22;6470;47.654;7.896;2022-08-27T16:45:39;23.10;99.90
12811;DHT22;6470;47.654;7.896;2022-08-27T16:48:05;23.20;99.90
12811;DHT22;6470;47.654;7.896;2022-08-27T16:50:50;22.70;99.90
12811;DHT22;6470;47.654;7.896;2022-08-27T16:53:18;23.20;99.90
12811;DHT22;6470;47.654;7.896;2022-08-27T16:55:47;22.60;99.90
12811;DHT22;6470;47.654;7.896;2022-08-27T16:58:21;22.60;99.90
12811;DHT22;6470;47.654;7.896;2022-08-27T17:00:49;21.90;99.90
12811;DHT22;6470;47.654;7.896;2022-08-27T17:03:18;22.50;99.90
12811;DHT22;6470;47.654;7.896;2022-08-27T17:05:44;21.70;99.90
12811;DHT22;6470;47.654;7.896;2022-08-27T17:08:11;22.10;99.90
12811;DHT22;6470;47.654;7.896;2022-08-27T17:10:40;22.40;99.90
12811;DHT22;6470;47.654;7.896;2022-08-27T17:13:13;22.10;99.90
12811;DHT22;6470;47.654;7.896;2022-08-27T17:15:40;22.00;99.90
12811;DHT22;6470;47.654;7.896;2022-08-27T17:18:06;22.20;99.90
12811;DHT22;6470;47.654;7.896;2022-08-27T17:22:59;22.00;99.90
12811;DHT22;6470;47.654;7.896;2022-08-27T17:25:26;21.90;99.90
12811;DHT22;6470;47.654;7.896;2022-08-27T17:30:18;22.00;99.90
12811;DHT22;6470;47.654;7.896;2022-08-27T17:32:44;22.00;99.90
12811;DHT22;6470;47.654;7.896;2022-08-27T17:35:11;21.60;99.90
12811;DHT22;6470;47.654;7.896;2022-08-27T17:37:38;21.90;99.90
12811;DHT22;6470;47.654;7.896;2022-08-27T17:40:05;21.20;99.90
12811;DHT22;6470;47.654;7.896;2022-08-27T17:42:31;21.10;99.90
12811;DHT22;6470;47.654;7.896;2022-08-27T17:44:57;20.90;99.90
12811;DHT22;6470;47.654;7.896;2022-08-27T17:47:23;21.00;99.90
12811;DHT22;6470;47.654;7.896;2022-08-27T17:53:11;20.90;99.90
12811;DHT22;6470;47.654;7.896;2022-08-27T17:55:37;21.10;99.90
12811;DHT22;6470;47.654;7.896;2022-08-27T17:58:02;20.70;99.90
12811;DHT22;6470;47.654;7.896;2022-08-27T18:00:28;20.60;99.90
12811;DHT22;6470;47.654;7.896;2022-08-27T18:02:54;20.90;99.90
12811;DHT22;6470;47.654;7.896;2022-08-27T18:05:22;20.30;99.90
12811;DHT22;6470;47.654;7.896;2022-08-27T18:07:49;20.50;99.90
12811;DHT22;6470;47.654;7.896;2022-08-27T18:10:21;20.80;99.90
12811;DHT22;6470;47.654;7.896;2022-08-27T18:12:49;19.20;99.90
12811;DHT22;6470;47.654;7.896;2022-08-27T18:15:27;19.70;99.90
12811;DHT22;6470;47.654;7.896;2022-08-27T18:17:53;19.90;99.90
12811;DHT22;6470;47.654;7.896;2022-08-27T18:20:21;19.70;99.90
12811;DHT22;6470;47.654;7.896;2022-08-27T18:22:47;19.80;99.90
12811;DHT22;6470;47.654;7.896;2022-08-27T18:27:42;19.90;99.90
12811;DHT22;6470;47.654;7.896;2022-08-27T18:30:10;19.30;99.90
12811;DHT22;6470;47.654;7.896;2022-08-27T18:32:37;19.80;99.90
12811;DHT22;6470;47.654;7.896;2022-08-27T18:37:45;19.50;99.90
12811;DHT22;6470;47.654;7.896;2022-08-27T18:40:12;19.00;99.90
12811;DHT22;6470;47.654;7.896;2022-08-27T18:42:39;19.20;99.90